sensor_id;sensor_type;location;lat;lon;timestamp;pressure;altitude;pressure_sealevel;temperature;humidity
216;BME280;64590;48.81286795;9.14184224;2022-12-07T00:01:46;98356.91;;;4.52;81.55
216;BME280;64590;48.81286795;9.14184224;2022-12-07T00:04:14;98346.59;;;4.49;81.49
216;BME280;64590;48.81286795;9.14184224;2022-12-07T00:06:43;98352.41;;;4.32;82.64
216;BME280;64590;48.81286795;9.14184224;2022-12-07T00:09:12;98358.72;;;4.33;82.01
216;BME280;64590;48.81286795;9.14184224;2022-12-07T00:11:40;98353.78;;;4.38;82.07
216;BME280;64590;48.81286795;9.14184224;2022-12-07T00:14:10;98338.28;;;4.46;81.58
216;BME280;64590;48.81286795;9.14184224;2022-12-07T00:16:37;98353.44;;;4.56;81.41
216;BME280;64590;48.81286795;9.14184224;2022-12-07T00:19:04;98351.69;;;4.63;80.92
216;BME280;64590;48.81286795;9.14184224;2022-12-07T00:21:33;98346.63;;;4.65;80.33
216;BME280;64590;48.81286795;9.14184224;2022-12-07T00:24:01;98339.38;;;4.73;80.18
216;BME280;64590;48.81286795;9.14184224;2022-12-07T00:26:30;98350.59;;;4.68;79.22
216;BME280;64590;48.81286795;9.14184224;2022-12-07T00:29:03;98349.44;;;4.69;79.52
216;BME280;64590;48.81286795;9.14184224;2022-12-07T00:31:32;98347.06;;;4.67;80.02
216;BME280;64590;48.81286795;9.14184224;2022-12-07T00:34:01;98351.56;;;4.60;79.76
216;BME280;64590;48.81286795;9.14184224;2022-12-07T00:36:28;98335.88;;;4.44;80.17
216;BME280;64590;48.81286795;9.14184224;2022-12-07T00:38:55;98343.59;;;4.54;79.31
216;BME280;64590;48.81286795;9.14184224;2022-12-07T00:41:25;98344.03;;;4.57;79.72
216;BME280;64590;48.81286795;9.14184224;2022-12-07T00:43:52;98345.88;;;4.37;80.07
216;BME280;64590;48.81286795;9.14184224;2022-12-07T00:46:20;98347.56;;;4.41;80.36
216;BME280;64590;48.81286795;9.14184224;2022-12-07T00:48:48;98338.91;;;4.55;79.15
216;BME280;64590;48.81286795;9.14184224;2022-12-07T00:51:17;98331.25;;;4.48;79.24
216;BME280;64590;48.81286795;9.14184224;2022-12-07T00:53:44;98345.16;;;4.40;79.94
216;BME280;64590;48.81286795;9.14184224;2022-12-07T00:56:12;98340.94;;;4.58;79.12
216;BME280;64590;48.81286795;9.14184224;2022-12-07T00:58:40;98344.94;;;4.61;78.38
216;BME280;64590;48.81286795;9.14184224;2022-12-07T01:01:08;98340.25;;;4.61;78.77
216;BME280;64590;48.81286795;9.14184224;2022-12-07T01:03:37;98347.94;;;4.56;79.51
216;BME280;64590;48.81286795;9.14184224;2022-12-07T01:06:05;98349.16;;;4.42;79.97
216;BME280;64590;48.81286795;9.14184224;2022-12-07T01:08:32;98342.38;;;4.68;78.96
216;BME280;64590;48.81286795;9.14184224;2022-12-07T01:11:00;98338.03;;;4.67;78.49
216;BME280;64590;48.81286795;9.14184224;2022-12-07T01:13:27;98341.38;;;4.60;78.56
216;BME280;64590;48.81286795;9.14184224;2022-12-07T01:15:57;98343.59;;;4.54;79.01
216;BME280;64590;48.81286795;9.14184224;2022-12-07T01:18:25;98343.50;;;4.51;78.80
216;BME280;64590;48.81286795;9.14184224;2022-12-07T01:21:02;98353.44;;;4.56;78.36
216;BME280;64590;48.81286795;9.14184224;2022-12-07T01:23:29;98352.44;;;4.48;79.29
216;BME280;64590;48.81286795;9.14184224;2022-12-07T01:25:56;98351.13;;;4.58;78.65
216;BME280;64590;48.81286795;9.14184224;2022-12-07T01:28:23;98354.75;;;4.46;79.05
216;BME280;64590;48.81286795;9.14184224;2022-12-07T01:30:58;98344.38;;;4.39;79.06
216;BME280;64590;48.81286795;9.14184224;2022-12-07T01:33:26;98356.56;;;4.54;78.96
216;BME280;64590;48.81286795;9.14184224;2022-12-07T01:35:53;98350.25;;;4.53;78.81
216;BME280;64590;48.81286795;9.14184224;2022-12-07T01:38:21;98350.88;;;4.63;78.70
216;BME280;64590;48.81286795;9.14184224;2022-12-07T01:40:54;98350.63;;;4.52;79.03
216;BME280;64590;48.81286795;9.14184224;2022-12-07T01:43:21;98364.03;;;4.41;79.85
216;BME280;64590;48.81286795;9.14184224;2022-12-07T01:45:49;98356.72;;;4.45;79.95
216;BME280;64590;48.81286795;9.14184224;2022-12-07T01:48:17;98355.72;;;4.38;79.99
216;BME280;64590;48.81286795;9.14184224;2022-12-07T01:50:49;98367.00;;;4.48;79.76
216;BME280;64590;48.81286795;9.14184224;2022-12-07T01:53:17;98359.97;;;4.51;79.40
216;BME280;64590;48.81286795;9.14184224;2022-12-07T01:55:48;98361.09;;;4.34;79.48
216;BME280;64590;48.81286795;9.14184224;2022-12-07T01:58:16;98362.09;;;4.42;79.88
216;BME280;64590;48.81286795;9.14184224;2022-12-07T02:00:43;98359.47;;;4.45;79.74
216;BME280;64590;48.81286795;9.14184224;2022-12-07T02:03:13;98357.41;;;4.42;79.83
216;BME280;64590;48.81286795;9.14184224;2022-12-07T02:05:43;98355.41;;;4.55;79.78
216;BME280;64590;48.81286795;9.14184224;2022-12-07T02:08:10;98361.53;;;4.80;78.47
216;BME280;64590;48.81286795;9.14184224;2022-12-07T02:10:38;98347.34;;;4.62;79.27
216;BME280;64590;48.81286795;9.14184224;2022-12-07T02:13:09;98354.59;;;4.54;79.80
216;BME280;64590;48.81286795;9.14184224;2022-12-07T02:15:47;98358.06;;;4.67;79.14
216;BME280;64590;48.81286795;9.14184224;2022-12-07T02:18:25;98357.25;;;4.67;79.07
216;BME280;64590;48.81286795;9.14184224;2022-12-07T02:21:01;98353.19;;;4.61;79.15
216;BME280;64590;48.81286795;9.14184224;2022-12-07T02:23:45;98347.34;;;4.62;79.34
216;BME280;64590;48.81286795;9.14184224;2022-12-07T02:26:32;98347.41;;;4.66;78.90
216;BME280;64590;48.81286795;9.14184224;2022-12-07T02:29:18;98339.09;;;4.62;79.51
216;BME280;64590;48.81286795;9.14184224;2022-12-07T02:31:53;98338.34;;;4.49;79.57
216;BME280;64590;48.81286795;9.14184224;2022-12-07T02:34:28;98337.38;;;4.58;79.19
216;BME280;64590;48.81286795;9.14184224;2022-12-07T02:37:00;98331.53;;;4.43;79.66
216;BME280;64590;48.81286795;9.14184224;2022-12-07T02:39:32;98331.81;;;4.54;79.69
216;BME280;64590;48.81286795;9.14184224;2022-12-07T02:42:07;98333.03;;;4.41;79.82
216;BME280;64590;48.81286795;9.14184224;2022-12-07T02:44:37;98331.34;;;4.36;80.22
216;BME280;64590;48.81286795;9.14184224;2022-12-07T02:47:07;98338.31;;;4.34;80.07
216;BME280;64590;48.81286795;9.14184224;2022-12-07T02:49:36;98329.91;;;4.42;80.05
216;BME280;64590;48.81286795;9.14184224;2022-12-07T02:52:04;98317.97;;;4.35;79.67
216;BME280;64590;48.81286795;9.14184224;2022-12-07T02:54:31;98328.16;;;4.50;79.72
216;BME280;64590;48.81286795;9.14184224;2022-12-07T02:57:04;98320.28;;;4.48;79.77
216;BME280;64590;48.81286795;9.14184224;2022-12-07T02:59:45;98322.31;;;4.36;79.79
216;BME280;64590;48.81286795;9.14184224;2022-12-07T03:02:20;98318.75;;;4.51;79.51
216;BME280;64590;48.81286795;9.14184224;2022-12-07T03:05:00;98315.56;;;4.49;78.85
216;BME280;64590;48.81286795;9.14184224;2022-12-07T03:07:38;98319.72;;;4.43;79.79
216;BME280;64590;48.81286795;9.14184224;2022-12-07T03:10:14;98314.16;;;4.55;79.17
216;BME280;64590;48.81286795;9.14184224;2022-12-07T03:12:46;98321.78;;;4.46;79.38
216;BME280;64590;48.81286795;9.14184224;2022-12-07T03:15:21;98302.19;;;4.47;79.27
216;BME280;64590;48.81286795;9.14184224;2022-12-07T03:17:54;98319.84;;;4.46;79.33
216;BME280;64590;48.81286795;9.14184224;2022-12-07T03:20:23;98310.88;;;4.49;78.94
216;BME280;64590;48.81286795;9.14184224;2022-12-07T03:22:52;98317.09;;;4.46;79.54
216;BME280;64590;48.81286795;9.14184224;2022-12-07T03:25:20;98307.44;;;4.52;79.19
216;BME280;64590;48.81286795;9.14184224;2022-12-07T03:27:52;98312.13;;;4.52;79.07
216;BME280;64590;48.81286795;9.14184224;2022-12-07T03:30:24;98303.97;;;4.56;78.85
216;BME280;64590;48.81286795;9.14184224;2022-12-07T03:32:58;98306.00;;;4.59;78.53
216;BME280;64590;48.81286795;9.14184224;2022-12-07T03:35:29;98303.16;;;4.55;79.42
216;BME280;64590;48.81286795;9.14184224;2022-12-07T03:38:00;98304.34;;;4.70;78.50
216;BME280;64590;48.81286795;9.14184224;2022-12-07T03:40:33;98298.22;;;4.61;78.59
216;BME280;64590;48.81286795;9.14184224;2022-12-07T03:43:01;98304.75;;;4.40;78.73
216;BME280;64590;48.81286795;9.14184224;2022-12-07T03:45:33;98302.25;;;4.51;78.28
216;BME280;64590;48.81286795;9.14184224;2022-12-07T03:48:07;98290.31;;;4.43;78.33
216;BME280;64590;48.81286795;9.14184224;2022-12-07T03:50:43;98297.13;;;4.49;78.46
216;BME280;64590;48.81286795;9.14184224;2022-12-07T03:53:15;98293.59;;;4.49;78.23
216;BME280;64590;48.81286795;9.14184224;2022-12-07T03:55:45;98297.69;;;4.55;78.30
216;BME280;64590;48.81286795;9.14184224;2022-12-07T03:58:15;98293.56;;;4.33;78.87
216;BME280;64590;48.81286795;9.14184224;2022-12-07T04:00:46;98291.97;;;4.32;78.74
216;BME280;64590;48.81286795;9.14184224;2022-12-07T04:03:12;98286.47;;;4.32;78.36
216;BME280;64590;48.81286795;9.14184224;2022-12-07T04:05:39;98287.25;;;4.17;78.64
216;BME280;64590;48.81286795;9.14184224;2022-12-07T04:08:07;98287.53;;;4.28;78.31
216;BME280;64590;48.81286795;9.14184224;2022-12-07T04:10:33;98284.00;;;4.27;77.14
216;BME280;64590;48.81286795;9.14184224;2022-12-07T04:13:00;98287.34;;;4.20;77.19
216;BME280;64590;48.81286795;9.14184224;2022-12-07T04:15:27;98283.28;;;4.30;76.50
216;BME280;64590;48.81286795;9.14184224;2022-12-07T04:17:55;98279.03;;;4.33;75.42
216;BME280;64590;48.81286795;9.14184224;2022-12-07T04:20:21;98269.09;;;4.28;76.10
216;BME280;64590;48.81286795;9.14184224;2022-12-07T04:22:48;98263.75;;;4.04;76.20
216;BME280;64590;48.81286795;9.14184224;2022-12-07T04:25:15;98273.34;;;4.10;76.09
216;BME280;64590;48.81286795;9.14184224;2022-12-07T04:27:41;98264.13;;;4.18;74.94
216;BME280;64590;48.81286795;9.14184224;2022-12-07T04:30:09;98257.56;;;4.22;73.22
216;BME280;64590;48.81286795;9.14184224;2022-12-07T04:32:35;98255.16;;;4.05;73.05
216;BME280;64590;48.81286795;9.14184224;2022-12-07T04:35:05;98247.81;;;4.09;73.00
216;BME280;64590;48.81286795;9.14184224;2022-12-07T04:37:32;98245.88;;;4.10;71.85
216;BME280;64590;48.81286795;9.14184224;2022-12-07T04:39:58;98249.59;;;4.17;70.21
216;BME280;64590;48.81286795;9.14184224;2022-12-07T04:42:25;98244.34;;;4.12;69.72
216;BME280;64590;48.81286795;9.14184224;2022-12-07T04:44:51;98244.13;;;4.17;70.92
216;BME280;64590;48.81286795;9.14184224;2022-12-07T04:47:19;98230.72;;;4.16;70.02
216;BME280;64590;48.81286795;9.14184224;2022-12-07T04:49:45;98236.19;;;4.16;71.23
216;BME280;64590;48.81286795;9.14184224;2022-12-07T04:52:13;98231.16;;;4.34;69.33
216;BME280;64590;48.81286795;9.14184224;2022-12-07T04:54:40;98230.66;;;4.28;69.55
216;BME280;64590;48.81286795;9.14184224;2022-12-07T04:57:06;98235.97;;;4.37;69.33
216;BME280;64590;48.81286795;9.14184224;2022-12-07T04:59:33;98247.13;;;4.28;69.44
216;BME280;64590;48.81286795;9.14184224;2022-12-07T05:02:00;98240.72;;;4.24;69.80
216;BME280;64590;48.81286795;9.14184224;2022-12-07T05:04:26;98250.72;;;4.01;69.57
216;BME280;64590;48.81286795;9.14184224;2022-12-07T05:06:53;98251.88;;;4.15;69.76
216;BME280;64590;48.81286795;9.14184224;2022-12-07T05:09:21;98260.41;;;4.10;70.21
216;BME280;64590;48.81286795;9.14184224;2022-12-07T05:11:48;98255.91;;;4.18;69.68
216;BME280;64590;48.81286795;9.14184224;2022-12-07T05:14:16;98258.28;;;4.19;69.94
216;BME280;64590;48.81286795;9.14184224;2022-12-07T05:16:44;98267.13;;;4.13;70.81
216;BME280;64590;48.81286795;9.14184224;2022-12-07T05:19:12;98267.38;;;4.08;69.74
216;BME280;64590;48.81286795;9.14184224;2022-12-07T05:21:39;98257.53;;;3.91;70.82
216;BME280;64590;48.81286795;9.14184224;2022-12-07T05:24:07;98278.03;;;3.81;71.97
216;BME280;64590;48.81286795;9.14184224;2022-12-07T05:26:35;98280.91;;;3.73;72.93
216;BME280;64590;48.81286795;9.14184224;2022-12-07T05:29:02;98284.38;;;3.69;73.33
216;BME280;64590;48.81286795;9.14184224;2022-12-07T05:31:29;98284.88;;;3.47;74.52
216;BME280;64590;48.81286795;9.14184224;2022-12-07T05:33:56;98276.00;;;3.38;75.23
216;BME280;64590;48.81286795;9.14184224;2022-12-07T05:36:22;98281.25;;;3.43;75.17
216;BME280;64590;48.81286795;9.14184224;2022-12-07T05:38:49;98286.94;;;3.50;74.76
216;BME280;64590;48.81286795;9.14184224;2022-12-07T05:41:17;98281.19;;;3.55;74.91
216;BME280;64590;48.81286795;9.14184224;2022-12-07T05:44:03;98287.19;;;3.45;75.00
216;BME280;64590;48.81286795;9.14184224;2022-12-07T05:46:30;98293.09;;;3.59;74.81
216;BME280;64590;48.81286795;9.14184224;2022-12-07T05:48:57;98291.53;;;3.46;75.40
216;BME280;64590;48.81286795;9.14184224;2022-12-07T05:51:23;98290.75;;;3.33;75.77
216;BME280;64590;48.81286795;9.14184224;2022-12-07T05:53:50;98293.06;;;3.31;76.16
216;BME280;64590;48.81286795;9.14184224;2022-12-07T05:56:17;98285.97;;;3.30;76.54
216;BME280;64590;48.81286795;9.14184224;2022-12-07T05:58:43;98284.66;;;3.52;76.39
216;BME280;64590;48.81286795;9.14184224;2022-12-07T06:01:29;98286.59;;;3.52;76.40
216;BME280;64590;48.81286795;9.14184224;2022-12-07T06:03:56;98288.63;;;3.67;76.10
216;BME280;64590;48.81286795;9.14184224;2022-12-07T06:06:22;98281.19;;;3.67;75.92
216;BME280;64590;48.81286795;9.14184224;2022-12-07T06:08:49;98284.66;;;3.80;75.86
216;BME280;64590;48.81286795;9.14184224;2022-12-07T06:11:16;98276.84;;;3.66;76.09
216;BME280;64590;48.81286795;9.14184224;2022-12-07T06:14:00;98292.19;;;3.55;76.44
216;BME280;64590;48.81286795;9.14184224;2022-12-07T06:16:28;98295.84;;;3.47;77.07
216;BME280;64590;48.81286795;9.14184224;2022-12-07T06:18:55;98303.81;;;3.64;76.20
216;BME280;64590;48.81286795;9.14184224;2022-12-07T06:21:21;98293.03;;;3.72;76.27
216;BME280;64590;48.81286795;9.14184224;2022-12-07T06:23:48;98299.91;;;3.78;76.50
216;BME280;64590;48.81286795;9.14184224;2022-12-07T06:26:15;98290.97;;;3.81;76.40
216;BME280;64590;48.81286795;9.14184224;2022-12-07T06:28:42;98295.78;;;3.72;76.70
216;BME280;64590;48.81286795;9.14184224;2022-12-07T06:31:09;98296.56;;;3.84;76.48
216;BME280;64590;48.81286795;9.14184224;2022-12-07T06:33:37;98299.16;;;3.65;77.07
216;BME280;64590;48.81286795;9.14184224;2022-12-07T06:36:04;98296.78;;;3.91;76.08
216;BME280;64590;48.81286795;9.14184224;2022-12-07T06:38:31;98294.31;;;4.02;74.93
216;BME280;64590;48.81286795;9.14184224;2022-12-07T06:40:57;98292.41;;;3.90;75.15
216;BME280;64590;48.81286795;9.14184224;2022-12-07T06:43:24;98285.03;;;3.79;75.46
216;BME280;64590;48.81286795;9.14184224;2022-12-07T06:45:51;98286.63;;;3.80;75.46
216;BME280;64590;48.81286795;9.14184224;2022-12-07T06:48:17;98289.28;;;3.76;74.86
216;BME280;64590;48.81286795;9.14184224;2022-12-07T06:50:46;98292.84;;;3.64;74.44
216;BME280;64590;48.81286795;9.14184224;2022-12-07T06:53:12;98294.84;;;3.80;74.03
216;BME280;64590;48.81286795;9.14184224;2022-12-07T06:55:39;98292.53;;;3.54;74.65
216;BME280;64590;48.81286795;9.14184224;2022-12-07T06:58:06;98290.56;;;3.66;74.42
216;BME280;64590;48.81286795;9.14184224;2022-12-07T07:00:33;98290.63;;;3.82;73.26
216;BME280;64590;48.81286795;9.14184224;2022-12-07T07:03:00;98296.56;;;3.84;72.32
216;BME280;64590;48.81286795;9.14184224;2022-12-07T07:05:27;98300.53;;;3.87;72.47
216;BME280;64590;48.81286795;9.14184224;2022-12-07T07:07:55;98304.34;;;3.82;72.05
216;BME280;64590;48.81286795;9.14184224;2022-12-07T07:10:21;98300.25;;;3.76;71.44
216;BME280;64590;48.81286795;9.14184224;2022-12-07T07:12:48;98298.53;;;3.72;71.21
216;BME280;64590;48.81286795;9.14184224;2022-12-07T07:15:15;98305.66;;;3.60;70.91
216;BME280;64590;48.81286795;9.14184224;2022-12-07T07:17:42;98298.44;;;3.68;71.33
216;BME280;64590;48.81286795;9.14184224;2022-12-07T07:20:09;98302.06;;;3.72;71.50
216;BME280;64590;48.81286795;9.14184224;2022-12-07T07:22:36;98297.81;;;3.87;70.75
216;BME280;64590;48.81286795;9.14184224;2022-12-07T07:25:05;98303.94;;;3.96;69.80
216;BME280;64590;48.81286795;9.14184224;2022-12-07T07:27:31;98312.25;;;4.00;70.33
216;BME280;64590;48.81286795;9.14184224;2022-12-07T07:29:58;98308.84;;;4.03;69.63
216;BME280;64590;48.81286795;9.14184224;2022-12-07T07:32:25;98312.22;;;4.12;69.75
216;BME280;64590;48.81286795;9.14184224;2022-12-07T07:34:51;98309.31;;;4.20;70.71
216;BME280;64590;48.81286795;9.14184224;2022-12-07T07:37:18;98304.03;;;4.28;69.82
216;BME280;64590;48.81286795;9.14184224;2022-12-07T07:39:44;98310.84;;;4.18;69.05
216;BME280;64590;48.81286795;9.14184224;2022-12-07T07:42:12;98316.78;;;4.20;69.65
216;BME280;64590;48.81286795;9.14184224;2022-12-07T07:44:39;98315.53;;;4.17;69.02
216;BME280;64590;48.81286795;9.14184224;2022-12-07T07:47:06;98316.34;;;4.18;68.85
216;BME280;64590;48.81286795;9.14184224;2022-12-07T07:49:32;98321.81;;;4.18;68.72
216;BME280;64590;48.81286795;9.14184224;2022-12-07T07:51:59;98323.41;;;4.19;68.65
216;BME280;64590;48.81286795;9.14184224;2022-12-07T07:54:26;98322.16;;;4.16;68.47
216;BME280;64590;48.81286795;9.14184224;2022-12-07T07:56:53;98320.75;;;4.22;68.68
216;BME280;64590;48.81286795;9.14184224;2022-12-07T07:59:20;98314.66;;;4.29;69.53
216;BME280;64590;48.81286795;9.14184224;2022-12-07T08:01:47;98323.03;;;4.48;68.48
216;BME280;64590;48.81286795;9.14184224;2022-12-07T08:04:14;98319.28;;;4.41;68.17
216;BME280;64590;48.81286795;9.14184224;2022-12-07T08:06:41;98316.66;;;4.44;67.94
216;BME280;64590;48.81286795;9.14184224;2022-12-07T08:09:08;98328.78;;;4.43;68.13
216;BME280;64590;48.81286795;9.14184224;2022-12-07T08:11:35;98328.16;;;4.50;67.20
216;BME280;64590;48.81286795;9.14184224;2022-12-07T08:14:02;98329.59;;;4.44;68.11
216;BME280;64590;48.81286795;9.14184224;2022-12-07T08:16:30;98326.31;;;4.54;66.85
216;BME280;64590;48.81286795;9.14184224;2022-12-07T08:18:57;98324.81;;;4.57;66.17
216;BME280;64590;48.81286795;9.14184224;2022-12-07T08:21:24;98326.75;;;4.56;66.83
216;BME280;64590;48.81286795;9.14184224;2022-12-07T08:23:50;98327.31;;;4.62;65.93
216;BME280;64590;48.81286795;9.14184224;2022-12-07T08:26:17;98324.63;;;4.65;66.03
216;BME280;64590;48.81286795;9.14184224;2022-12-07T08:28:43;98325.06;;;4.51;66.29
216;BME280;64590;48.81286795;9.14184224;2022-12-07T08:31:13;98328.78;;;4.43;67.26
216;BME280;64590;48.81286795;9.14184224;2022-12-07T08:33:42;98340.03;;;4.38;66.54
216;BME280;64590;48.81286795;9.14184224;2022-12-07T08:36:10;98307.31;;;4.49;66.12
216;BME280;64590;48.81286795;9.14184224;2022-12-07T08:38:39;98322.13;;;4.44;66.34
216;BME280;64590;48.81286795;9.14184224;2022-12-07T08:41:06;98340.13;;;4.58;66.38
216;BME280;64590;48.81286795;9.14184224;2022-12-07T08:43:34;98337.50;;;4.61;66.47
216;BME280;64590;48.81286795;9.14184224;2022-12-07T08:46:06;98334.03;;;4.64;66.90
216;BME280;64590;48.81286795;9.14184224;2022-12-07T08:48:39;98331.13;;;4.73;67.20
216;BME280;64590;48.81286795;9.14184224;2022-12-07T08:51:09;98334.13;;;4.99;65.71
216;BME280;64590;48.81286795;9.14184224;2022-12-07T08:53:37;98332.72;;;4.74;65.48
216;BME280;64590;48.81286795;9.14184224;2022-12-07T08:56:05;98335.28;;;4.82;66.33
216;BME280;64590;48.81286795;9.14184224;2022-12-07T08:58:35;98341.84;;;4.94;65.88
216;BME280;64590;48.81286795;9.14184224;2022-12-07T09:01:03;98332.34;;;4.91;64.83
216;BME280;64590;48.81286795;9.14184224;2022-12-07T09:03:30;98307.78;;;4.67;65.43
216;BME280;64590;48.81286795;9.14184224;2022-12-07T09:05:57;98340.16;;;4.89;65.94
216;BME280;64590;48.81286795;9.14184224;2022-12-07T09:08:29;98332.44;;;5.10;64.89
216;BME280;64590;48.81286795;9.14184224;2022-12-07T09:10:57;98326.75;;;5.03;64.25
216;BME280;64590;48.81286795;9.14184224;2022-12-07T09:13:24;98332.53;;;4.98;64.54
216;BME280;64590;48.81286795;9.14184224;2022-12-07T09:15:50;98335.28;;;5.14;64.88
216;BME280;64590;48.81286795;9.14184224;2022-12-07T09:18:17;98334.03;;;5.11;65.79
216;BME280;64590;48.81286795;9.14184224;2022-12-07T09:20:44;98323.19;;;5.03;64.82
216;BME280;64590;48.81286795;9.14184224;2022-12-07T09:23:10;98331.97;;;5.24;64.98
216;BME280;64590;48.81286795;9.14184224;2022-12-07T09:25:38;98331.34;;;5.31;65.05
216;BME280;64590;48.81286795;9.14184224;2022-12-07T09:28:05;98326.31;;;5.52;65.06
216;BME280;64590;48.81286795;9.14184224;2022-12-07T09:30:32;98329.34;;;5.47;64.34
216;BME280;64590;48.81286795;9.14184224;2022-12-07T09:32:58;98326.69;;;5.51;64.06
216;BME280;64590;48.81286795;9.14184224;2022-12-07T09:35:25;98324.75;;;5.35;64.34
216;BME280;64590;48.81286795;9.14184224;2022-12-07T09:37:53;98332.25;;;5.54;64.56
216;BME280;64590;48.81286795;9.14184224;2022-12-07T09:40:21;98316.81;;;5.15;64.82
216;BME280;64590;48.81286795;9.14184224;2022-12-07T09:42:52;98333.50;;;5.22;64.30
216;BME280;64590;48.81286795;9.14184224;2022-12-07T09:45:23;98336.94;;;5.19;65.48
216;BME280;64590;48.81286795;9.14184224;2022-12-07T09:47:50;98332.03;;;5.28;65.09
216;BME280;64590;48.81286795;9.14184224;2022-12-07T09:50:20;98325.44;;;5.48;66.73
216;BME280;64590;48.81286795;9.14184224;2022-12-07T09:52:48;98312.47;;;5.49;65.93
216;BME280;64590;48.81286795;9.14184224;2022-12-07T09:55:16;98319.19;;;5.32;66.02
216;BME280;64590;48.81286795;9.14184224;2022-12-07T09:57:45;98311.34;;;5.34;65.98
216;BME280;64590;48.81286795;9.14184224;2022-12-07T10:00:16;98312.75;;;5.44;66.25
216;BME280;64590;48.81286795;9.14184224;2022-12-07T10:02:46;98307.09;;;5.56;66.04
216;BME280;64590;48.81286795;9.14184224;2022-12-07T10:05:15;98302.50;;;5.60;66.02
216;BME280;64590;48.81286795;9.14184224;2022-12-07T10:07:43;98303.03;;;5.65;66.28
216;BME280;64590;48.81286795;9.14184224;2022-12-07T10:10:14;98291.69;;;5.71;65.25
216;BME280;64590;48.81286795;9.14184224;2022-12-07T10:12:54;98294.19;;;5.76;65.66
216;BME280;64590;48.81286795;9.14184224;2022-12-07T10:15:22;98292.06;;;5.69;65.47
216;BME280;64590;48.81286795;9.14184224;2022-12-07T10:17:50;98299.81;;;5.63;65.43
216;BME280;64590;48.81286795;9.14184224;2022-12-07T10:20:23;98287.72;;;5.68;66.25
216;BME280;64590;48.81286795;9.14184224;2022-12-07T10:23:02;98293.22;;;5.68;65.92
216;BME280;64590;48.81286795;9.14184224;2022-12-07T10:25:32;98287.13;;;5.59;65.88
216;BME280;64590;48.81286795;9.14184224;2022-12-07T10:28:01;98287.13;;;5.59;66.86
216;BME280;64590;48.81286795;9.14184224;2022-12-07T10:30:30;98285.53;;;5.58;66.81
216;BME280;64590;48.81286795;9.14184224;2022-12-07T10:32:58;98286.63;;;5.73;66.65
216;BME280;64590;48.81286795;9.14184224;2022-12-07T10:35:26;98290.09;;;5.70;66.93
216;BME280;64590;48.81286795;9.14184224;2022-12-07T10:37:55;98286.97;;;5.52;67.78
216;BME280;64590;48.81286795;9.14184224;2022-12-07T10:40:28;98285.97;;;5.41;68.18
216;BME280;64590;48.81286795;9.14184224;2022-12-07T10:43:04;98282.94;;;5.65;68.18
216;BME280;64590;48.81286795;9.14184224;2022-12-07T10:45:34;98279.09;;;5.70;68.76
216;BME280;64590;48.81286795;9.14184224;2022-12-07T10:48:07;98278.44;;;5.76;67.78
216;BME280;64590;48.81286795;9.14184224;2022-12-07T10:50:57;98279.31;;;5.61;68.65
216;BME280;64590;48.81286795;9.14184224;2022-12-07T10:53:51;98271.72;;;5.74;69.42
216;BME280;64590;48.81286795;9.14184224;2022-12-07T10:59:39;98265.97;;;5.63;69.92
216;BME280;64590;48.81286795;9.14184224;2022-12-07T11:02:23;98267.44;;;5.76;69.77
216;BME280;64590;48.81286795;9.14184224;2022-12-07T11:05:01;98258.16;;;5.65;70.69
216;BME280;64590;48.81286795;9.14184224;2022-12-07T11:07:40;98255.03;;;5.66;70.67
216;BME280;64590;48.81286795;9.14184224;2022-12-07T11:10:13;98257.44;;;5.68;70.77
216;BME280;64590;48.81286795;9.14184224;2022-12-07T11:12:50;98256.22;;;5.65;70.40
216;BME280;64590;48.81286795;9.14184224;2022-12-07T11:15:24;98256.00;;;5.93;69.99
216;BME280;64590;48.81286795;9.14184224;2022-12-07T11:17:56;98255.53;;;5.72;70.79
216;BME280;64590;48.81286795;9.14184224;2022-12-07T11:20:39;98255.91;;;5.71;70.71
216;BME280;64590;48.81286795;9.14184224;2022-12-07T11:23:16;98252.28;;;5.66;71.54
216;BME280;64590;48.81286795;9.14184224;2022-12-07T11:25:51;98248.13;;;5.37;72.27
216;BME280;64590;48.81286795;9.14184224;2022-12-07T11:28:29;98239.81;;;5.34;71.91
216;BME280;64590;48.81286795;9.14184224;2022-12-07T11:31:07;98243.78;;;5.36;72.34
216;BME280;64590;48.81286795;9.14184224;2022-12-07T11:33:43;98251.66;;;5.38;72.13
216;BME280;64590;48.81286795;9.14184224;2022-12-07T11:36:23;98243.69;;;5.14;73.51
216;BME280;64590;48.81286795;9.14184224;2022-12-07T11:38:58;98242.09;;;5.13;73.97
216;BME280;64590;48.81286795;9.14184224;2022-12-07T11:41:28;98242.97;;;5.17;73.52
216;BME280;64590;48.81286795;9.14184224;2022-12-07T11:44:01;98239.75;;;5.30;73.87
216;BME280;64590;48.81286795;9.14184224;2022-12-07T11:46:41;98236.47;;;5.25;73.39
216;BME280;64590;48.81286795;9.14184224;2022-12-07T11:49:15;98228.16;;;5.21;73.48
216;BME280;64590;48.81286795;9.14184224;2022-12-07T11:51:46;98234.44;;;5.22;73.40
216;BME280;64590;48.81286795;9.14184224;2022-12-07T11:54:19;98222.50;;;4.98;73.70
216;BME280;64590;48.81286795;9.14184224;2022-12-07T11:56:49;98226.72;;;5.11;73.69
216;BME280;64590;48.81286795;9.14184224;2022-12-07T11:59:20;98218.94;;;5.14;73.31
216;BME280;64590;48.81286795;9.14184224;2022-12-07T12:01:53;98224.22;;;5.22;73.29
216;BME280;64590;48.81286795;9.14184224;2022-12-07T12:04:34;98220.53;;;5.15;73.24
216;BME280;64590;48.81286795;9.14184224;2022-12-07T12:07:21;98219.72;;;5.14;73.73
216;BME280;64590;48.81286795;9.14184224;2022-12-07T12:09:52;98216.88;;;5.10;73.84